LEZL Airport Information

Runway Information
Runway 09 Length 11030 ft width 148 ft
Elevation 83 ft Threshold ft Heading 90
Runway 27 Length 11030 ft Width 148 ft
Elevation 111 ft Threshold ft Heading 270
Airport Frequencies
Type APP Name APP Frequency 120 MHZ
Type ATIS Name ATIS Frequency 118.175 MHZ
Type GND Name GND Frequency 121.7 MHZ
Type TWR Name TWR Frequency 118.1 MHZ
Airport Navaids
Type NDB Name Sevilla Frequency 420 KHZ
Type VOR-DME Name Sevilla Frequency 113700 KHZ
Airport Weather Information & NOTAM
ADDS - METARS form results

(2236 UTC 05 July 2022)
Data provider http://aviationweather.gov/metar/data/
 
METAR text: LEZL 052230Z 22011KT 9999 BKN016 21/17 Q1020 NOSIG
Conditions at: LEZL (SEVILLA (CIV/MIL, ES) observed 2230 UTC 05 July 2022
Temperature: 21.0°C (70°F)
Dewpoint: 17.0°C (63°F) [RH = 78%]
Pressure (altimeter): 30.12 inches Hg (1020.0 mb)
Winds: from the SW (220 degrees) at 13 MPH (11 knots; 5.7 m/s)
Visibility: 6 or more miles (10+ km)
Ceiling: 1600 feet AGL
Clouds: broken clouds at 1600 feet AGL
Weather: no significant weather observed at this time

METAR text: LEZL 052200Z 23010KT 9999 BKN016 20/17 Q1019 NOSIG
Conditions at: LEZL (SEVILLA (CIV/MIL, ES) observed 2200 UTC 05 July 2022
Temperature: 20.0°C (68°F)
Dewpoint: 17.0°C (63°F) [RH = 83%]
Pressure (altimeter): 30.09 inches Hg (1019.0 mb)
Winds: from the SW (230 degrees) at 12 MPH (10 knots; 5.1 m/s)
Visibility: 6 or more miles (10+ km)
Ceiling: 1600 feet AGL
Clouds: broken clouds at 1600 feet AGL
Weather: no significant weather observed at this time

Forecast for: LEZL (SEVILLA (CIV/MIL, ES)
Text: TAF LEZL 052000Z 0521/0621 22010KT CAVOK TX35/0615Z TN18/0605Z
Forecast period: 2100 UTC 05 July 2022 to 0000 UTC 06 July 2022
Forecast type: FROM: standard forecast or significant change
Winds: from the SW (220 degrees) at 12 MPH (10 knots; 5.1 m/s)
Visibility: 6 or more miles (10+ km)
Ceiling: unknown
Clouds: missing
Weather: no significant weather forecast for this period
Text: BECMG 0600/0602 VRB03KT
Forecast period: 0000 to 1700 UTC 06 July 2022
Forecast type: BECOMING: Conditions expected to become as follows by 0200 UTC 06 July 2022
Winds: variable direction winds at 3 MPH (3 knots; 1.5 m/s)
Visibility: 6 or more miles (10+ km)
Ceiling: unknown
Clouds: missing
Weather: no significant weather forecast for this period
Text: PROB40
Forecast period: 0000 to 0900 UTC 06 July 2022
Forecast type: TEMPORARY: The following changes expected for less than half the time period
Visibility: missing
Ceiling: 1200 feet AGL
Clouds: broken clouds at 1200 feet AGL
Weather: no significant weather forecast for this period
Text: TEMPO 0600/0609 BKN012
Forecast period: 1700 to 2100 UTC 06 July 2022
Forecast type: BECOMING: Conditions expected to become as follows by 1900 UTC 06 July 2022
Winds: from the SW (220 degrees) at 12 MPH (10 knots; 5.1 m/s)
Visibility: 6 or more miles (10+ km)
Ceiling: unknown
Clouds: missing
Weather: no significant weather forecast for this period